createdAt,value
2017-09-09T00:00:17.740Z,0
2017-09-09T00:01:16.829Z,0
2017-09-09T00:02:16.839Z,0
2017-09-09T00:03:17.208Z,0
2017-09-09T00:04:16.832Z,0
2017-09-09T00:05:18.503Z,0
2017-09-09T00:06:16.529Z,0
2017-09-09T00:07:16.827Z,0
2017-09-09T00:08:16.825Z,0
2017-09-09T00:09:16.538Z,0
2017-09-09T00:10:17.964Z,0
2017-09-09T00:11:16.535Z,0
2017-09-09T00:12:16.518Z,0
2017-09-09T00:13:17.134Z,0
2017-09-09T00:14:17.141Z,0
2017-09-09T00:15:17.515Z,0
2017-09-09T00:16:16.522Z,0
2017-09-09T00:17:16.612Z,0
2017-09-09T00:18:16.865Z,0
2017-09-09T00:19:16.528Z,0
2017-09-09T00:20:17.655Z,0
2017-09-09T00:21:16.511Z,0
2017-09-09T00:22:16.509Z,0
2017-09-09T00:23:17.137Z,0
2017-09-09T00:24:16.821Z,0
2017-09-09T00:25:17.761Z,0
2017-09-09T00:26:16.823Z,0
2017-09-09T00:27:16.508Z,0
2017-09-09T00:28:16.513Z,0
2017-09-09T00:29:16.509Z,0
2017-09-09T00:30:18.113Z,0
2017-09-09T00:31:17.142Z,0
2017-09-09T00:32:16.818Z,0
2017-09-09T00:33:16.830Z,0
2017-09-09T00:34:16.194Z,0
2017-09-09T00:35:18.142Z,0
2017-09-09T00:36:16.849Z,0
2017-09-09T00:37:16.858Z,0
2017-09-09T00:38:17.121Z,0
2017-09-09T00:39:16.817Z,0
2017-09-09T00:40:17.253Z,0
2017-09-09T00:41:16.812Z,0
2017-09-09T00:42:17.172Z,0
2017-09-09T00:43:16.803Z,0
2017-09-09T00:44:16.802Z,0
2017-09-09T00:45:18.251Z,0
2017-09-09T00:46:16.488Z,0
2017-09-09T00:47:16.798Z,0
2017-09-09T00:48:17.127Z,0
2017-09-09T00:49:16.807Z,0
2017-09-09T00:50:17.297Z,0
2017-09-09T00:51:16.510Z,0
2017-09-09T00:52:16.798Z,0
2017-09-09T00:53:16.798Z,0
2017-09-09T00:54:17.104Z,0
2017-09-09T00:55:17.372Z,0
2017-09-09T00:56:16.791Z,0
2017-09-09T00:57:17.096Z,0
2017-09-09T00:58:16.791Z,0
2017-09-09T00:59:16.798Z,0
2017-09-09T01:00:18.468Z,0
2017-09-09T01:01:16.797Z,0
2017-09-09T01:02:16.481Z,0
2017-09-09T01:03:16.479Z,0
2017-09-09T01:04:17.097Z,0
2017-09-09T01:05:18.132Z,0
2017-09-09T01:06:16.487Z,0
2017-09-09T01:07:16.775Z,0
2017-09-09T01:08:17.094Z,0
2017-09-09T01:09:16.547Z,0
2017-09-09T01:10:17.987Z,0
2017-09-09T01:11:16.478Z,0
2017-09-09T01:12:16.783Z,0
2017-09-09T01:13:17.078Z,0
2017-09-09T01:14:17.094Z,0
2017-09-09T01:15:17.423Z,0
2017-09-09T01:16:16.773Z,0
2017-09-09T01:17:17.088Z,0
2017-09-09T01:18:17.089Z,0
2017-09-09T01:19:17.146Z,0
2017-09-09T01:20:17.862Z,0
2017-09-09T01:21:16.452Z,0
2017-09-09T01:22:16.754Z,0
2017-09-09T01:23:16.770Z,0
2017-09-09T01:24:16.447Z,0
2017-09-09T01:25:18.355Z,0
2017-09-09T01:26:16.439Z,0
2017-09-09T01:27:16.760Z,0
2017-09-09T01:28:17.060Z,0
2017-09-09T01:29:16.754Z,0
2017-09-09T01:30:18.302Z,0
2017-09-09T01:31:16.429Z,0
2017-09-09T01:32:17.055Z,0
2017-09-09T01:33:16.741Z,0
2017-09-09T01:34:16.738Z,0
2017-09-09T01:35:18.828Z,0
2017-09-09T01:36:16.724Z,0
2017-09-09T01:37:16.741Z,0
2017-09-09T01:38:16.729Z,0
2017-09-09T01:39:17.037Z,0
2017-09-09T01:40:18.655Z,0
2017-09-09T01:41:16.731Z,0
2017-09-09T01:42:16.727Z,0
2017-09-09T01:43:16.412Z,0
2017-09-09T01:44:17.031Z,0
2017-09-09T01:45:16.576Z,0
2017-09-09T01:46:16.725Z,0
2017-09-09T01:47:16.720Z,0
2017-09-09T01:48:16.716Z,0
2017-09-09T01:49:16.715Z,0
2017-09-09T01:50:17.626Z,0
2017-09-09T01:51:17.267Z,0
2017-09-09T01:52:17.009Z,0
2017-09-09T01:53:16.651Z,0
2017-09-09T01:54:16.402Z,0
2017-09-09T01:55:18.308Z,0
2017-09-09T01:56:17.058Z,0
2017-09-09T01:57:16.724Z,0
2017-09-09T01:58:17.040Z,0
2017-09-09T01:59:16.998Z,0
2017-09-09T02:00:18.570Z,0
2017-09-09T02:01:16.065Z,0
2017-09-09T02:02:16.999Z,0
2017-09-09T02:03:16.069Z,0
2017-09-09T02:04:16.374Z,0
2017-09-09T02:05:17.367Z,0
2017-09-09T02:06:16.690Z,0
2017-09-09T02:07:16.363Z,0
2017-09-09T02:08:16.689Z,0
2017-09-09T02:09:16.670Z,0
2017-09-09T02:10:17.939Z,0
2017-09-09T02:11:16.356Z,0
2017-09-09T02:12:16.669Z,0
2017-09-09T02:13:16.672Z,0
2017-09-09T02:14:16.670Z,0
2017-09-09T02:15:18.444Z,0
2017-09-09T02:16:16.984Z,0
2017-09-09T02:17:16.960Z,0
2017-09-09T02:18:16.391Z,0
2017-09-09T02:19:16.654Z,0
2017-09-09T02:20:18.228Z,0
2017-09-09T02:21:16.679Z,0
2017-09-09T02:22:16.346Z,0
2017-09-09T02:23:16.987Z,0
2017-09-09T02:24:16.653Z,0
2017-09-09T02:25:18.099Z,0
2017-09-09T02:26:16.338Z,0
2017-09-09T02:27:16.339Z,0
2017-09-09T02:28:16.953Z,0
2017-09-09T02:29:16.333Z,0
2017-09-09T02:30:17.702Z,0
2017-09-09T02:31:16.646Z,0
2017-09-09T02:32:16.632Z,0
2017-09-09T02:33:16.955Z,0
2017-09-09T02:34:16.650Z,0
2017-09-09T02:35:18.287Z,0
2017-09-09T02:36:16.947Z,0
2017-09-09T02:37:16.641Z,0
2017-09-09T02:38:16.331Z,0
2017-09-09T02:39:16.939Z,0
2017-09-09T02:40:17.521Z,0
2017-09-09T02:41:16.632Z,0
2017-09-09T02:42:16.638Z,0
2017-09-09T02:43:16.976Z,0
2017-09-09T02:44:16.974Z,0
2017-09-09T02:45:18.398Z,0
2017-09-09T02:46:16.629Z,0
2017-09-09T02:47:16.931Z,0
2017-09-09T02:48:16.627Z,0
2017-09-09T02:49:16.629Z,0
2017-09-09T02:50:18.015Z,0
2017-09-09T02:51:16.341Z,0
2017-09-09T02:52:16.628Z,0
2017-09-09T02:53:16.938Z,0
2017-09-09T02:54:16.630Z,0
2017-09-09T02:55:18.055Z,0
2017-09-09T02:56:16.633Z,0
2017-09-09T02:57:15.994Z,0
2017-09-09T02:58:16.294Z,0
2017-09-09T02:59:16.608Z,0
2017-09-09T03:00:17.464Z,0
2017-09-09T03:01:16.602Z,0
2017-09-09T03:02:16.618Z,0
2017-09-09T03:03:16.607Z,0
2017-09-09T03:04:16.601Z,0
2017-09-09T03:05:18.560Z,0
2017-09-09T03:06:16.911Z,0
2017-09-09T03:07:16.903Z,0
2017-09-09T03:08:15.979Z,0
2017-09-09T03:09:16.598Z,0
2017-09-09T03:10:17.660Z,0
2017-09-09T03:11:16.602Z,0
2017-09-09T03:12:16.596Z,0
2017-09-09T03:13:16.593Z,0
2017-09-09T03:14:16.901Z,0
2017-09-09T03:15:16.818Z,0
2017-09-09T03:16:16.276Z,0
2017-09-09T03:17:16.279Z,0
2017-09-09T03:18:16.275Z,0
2017-09-09T03:19:16.577Z,0
2017-09-09T03:20:17.207Z,0
2017-09-09T03:21:16.928Z,0
2017-09-09T03:22:16.908Z,0
2017-09-09T03:23:16.579Z,0
2017-09-09T03:24:16.887Z,0
2017-09-09T03:25:17.527Z,0
2017-09-09T03:26:16.887Z,0
2017-09-09T03:27:16.585Z,0
2017-09-09T03:28:16.259Z,0
2017-09-09T03:29:16.256Z,0
2017-09-09T03:30:17.659Z,0
2017-09-09T03:31:16.886Z,0
2017-09-09T03:32:16.257Z,0
2017-09-09T03:33:16.865Z,0
2017-09-09T03:34:16.253Z,0
2017-09-09T03:35:17.326Z,0
2017-09-09T03:36:16.561Z,0
2017-09-09T03:37:15.933Z,0
2017-09-09T03:38:16.552Z,0
2017-09-09T03:39:16.550Z,0
2017-09-09T03:40:17.422Z,0
2017-09-09T03:41:16.873Z,0
2017-09-09T03:42:16.858Z,0
2017-09-09T03:43:16.857Z,0
2017-09-09T03:44:16.552Z,0
2017-09-09T03:45:17.844Z,0
2017-09-09T03:46:16.560Z,0
2017-09-09T03:47:16.541Z,0
2017-09-09T03:48:16.232Z,0
2017-09-09T03:49:16.847Z,0
2017-09-09T03:50:18.285Z,0
2017-09-09T03:51:16.843Z,0
2017-09-09T03:52:16.847Z,0
2017-09-09T03:53:16.532Z,0
2017-09-09T03:54:16.860Z,0
2017-09-09T03:55:17.550Z,0
2017-09-09T03:56:16.843Z,0
2017-09-09T03:57:16.563Z,0
2017-09-09T03:58:16.842Z,0
2017-09-09T03:59:16.527Z,0
2017-09-09T04:00:18.095Z,0
2017-09-09T04:01:16.524Z,0
2017-09-09T04:02:16.833Z,0
2017-09-09T04:03:16.518Z,0
2017-09-09T04:04:16.229Z,0
2017-09-09T04:05:17.740Z,0
2017-09-09T04:06:16.521Z,0
2017-09-09T04:07:16.828Z,0
2017-09-09T04:08:16.524Z,0
2017-09-09T04:09:16.512Z,0
2017-09-09T04:10:17.598Z,0
2017-09-09T04:11:16.826Z,0
2017-09-09T04:12:16.210Z,0
2017-09-09T04:13:16.207Z,0
2017-09-09T04:14:16.221Z,0
2017-09-09T04:15:17.869Z,0
2017-09-09T04:16:16.199Z,0
2017-09-09T04:17:16.815Z,0
2017-09-09T04:18:16.832Z,0
2017-09-09T04:19:16.218Z,0
2017-09-09T04:20:17.760Z,0
2017-09-09T04:21:16.811Z,0
2017-09-09T04:22:16.514Z,0
2017-09-09T04:23:16.191Z,0
2017-09-09T04:24:16.493Z,0
2017-09-09T04:25:17.349Z,0
2017-09-09T04:26:16.188Z,0
2017-09-09T04:27:15.886Z,0
2017-09-09T04:28:16.513Z,0
2017-09-09T04:29:16.857Z,0
2017-09-09T04:30:17.518Z,4
2017-09-09T04:31:16.175Z,4
2017-09-09T04:32:16.800Z,4
2017-09-09T04:33:16.195Z,4
2017-09-09T04:34:16.176Z,4
2017-09-09T04:35:17.818Z,0
2017-09-09T04:36:16.488Z,4
2017-09-09T04:37:16.495Z,4
2017-09-09T04:38:15.874Z,4
2017-09-09T04:39:16.182Z,4
2017-09-09T04:40:17.309Z,4
2017-09-09T04:41:16.180Z,8
2017-09-09T04:42:16.473Z,8
2017-09-09T04:43:16.792Z,12
2017-09-09T04:44:16.170Z,8
2017-09-09T04:45:17.998Z,12
2017-09-09T04:46:16.472Z,12
2017-09-09T04:47:16.476Z,12
2017-09-09T04:48:16.789Z,16
2017-09-09T04:49:16.161Z,16
2017-09-09T04:50:18.296Z,20
2017-09-09T04:51:16.466Z,20
2017-09-09T04:52:16.773Z,24
2017-09-09T04:53:16.457Z,28
2017-09-09T04:54:16.469Z,40
2017-09-09T04:55:17.601Z,44
2017-09-09T04:56:16.457Z,56
2017-09-09T04:57:16.770Z,64
2017-09-09T04:58:16.454Z,64
2017-09-09T04:59:16.140Z,64
2017-09-09T05:00:17.728Z,60
2017-09-09T05:01:16.448Z,60
2017-09-09T05:02:16.452Z,60
2017-09-09T05:03:16.446Z,60
2017-09-09T05:04:16.755Z,64
2017-09-09T05:05:17.190Z,72
2017-09-09T05:06:16.443Z,80
2017-09-09T05:07:16.762Z,80
2017-09-09T05:08:16.445Z,88
2017-09-09T05:09:16.440Z,96
2017-09-09T05:10:17.209Z,100
2017-09-09T05:11:16.770Z,108
2017-09-09T05:12:16.435Z,120
2017-09-09T05:13:16.124Z,140
2017-09-09T05:14:17.236Z,164
2017-09-09T05:15:17.441Z,168
2017-09-09T05:16:16.782Z,176
2017-09-09T05:17:16.743Z,184
2017-09-09T05:18:17.138Z,188
2017-09-09T05:19:16.448Z,196
2017-09-09T05:20:17.931Z,204
2017-09-09T05:21:16.737Z,212
2017-09-09T05:22:16.426Z,216
2017-09-09T05:23:16.121Z,224
2017-09-09T05:24:16.428Z,232
2017-09-09T05:25:17.223Z,240
2017-09-09T05:26:16.739Z,236
2017-09-09T05:27:16.120Z,244
2017-09-09T05:28:16.428Z,260
2017-09-09T05:29:16.419Z,272
2017-09-09T05:30:17.977Z,272
2017-09-09T05:31:16.740Z,272
2017-09-09T05:32:16.729Z,280
2017-09-09T05:33:16.730Z,288
2017-09-09T05:34:16.111Z,300
2017-09-09T05:35:17.232Z,316
2017-09-09T05:36:15.809Z,320
2017-09-09T05:37:16.726Z,340
2017-09-09T05:38:16.113Z,380
2017-09-09T05:39:16.418Z,424
2017-09-09T05:40:17.796Z,464
2017-09-09T05:41:16.717Z,504
2017-09-09T05:42:16.097Z,540
2017-09-09T05:43:16.413Z,572
2017-09-09T05:44:16.419Z,596
2017-09-09T05:45:17.602Z,604
2017-09-09T05:46:16.411Z,596
2017-09-09T05:47:16.732Z,564
2017-09-09T05:48:16.422Z,544
2017-09-09T05:49:15.784Z,532
2017-09-09T05:50:18.289Z,540
2017-09-09T05:51:16.718Z,552
2017-09-09T05:52:16.399Z,572
2017-09-09T05:53:16.400Z,572
2017-09-09T05:54:16.712Z,572
2017-09-09T05:55:17.483Z,564
2017-09-09T05:56:16.722Z,556
2017-09-09T05:57:16.092Z,552
2017-09-09T05:58:16.099Z,548
2017-09-09T05:59:16.403Z,556
2017-09-09T06:00:18.511Z,556
2017-09-09T06:01:16.105Z,560
2017-09-09T06:02:16.396Z,564
2017-09-09T06:03:16.392Z,560
2017-09-09T06:04:16.398Z,528
2017-09-09T06:05:18.196Z,492
2017-09-09T06:06:16.390Z,472
2017-09-09T06:07:16.398Z,456
2017-09-09T06:08:16.391Z,444
2017-09-09T06:09:16.385Z,432
2017-09-09T06:10:19.954Z,408
2017-09-09T06:11:16.090Z,392
2017-09-09T06:12:16.698Z,408
2017-09-09T06:13:16.083Z,432
2017-09-09T06:14:16.394Z,428
2017-09-09T06:15:17.952Z,412
2017-09-09T06:16:16.396Z,396
2017-09-09T06:17:16.705Z,360
2017-09-09T06:18:16.691Z,324
2017-09-09T06:19:16.389Z,308
2017-09-09T06:20:17.608Z,316
2017-09-09T06:21:16.690Z,312
2017-09-09T06:22:16.424Z,332
2017-09-09T06:23:16.383Z,360
2017-09-09T06:24:16.382Z,360
2017-09-09T06:25:18.284Z,328
2017-09-09T06:26:16.383Z,312
2017-09-09T06:27:16.384Z,356
2017-09-09T06:28:16.073Z,404
2017-09-09T06:29:16.385Z,448
2017-09-09T06:30:17.020Z,456
2017-09-09T06:31:16.388Z,420
2017-09-09T06:32:16.374Z,392
2017-09-09T06:33:16.074Z,380
2017-09-09T06:34:16.078Z,368
2017-09-09T06:35:16.932Z,352
2017-09-09T06:36:16.370Z,340
2017-09-09T06:37:16.379Z,336
2017-09-09T06:38:16.078Z,332
2017-09-09T06:39:16.686Z,316
2017-09-09T06:40:17.692Z,300
2017-09-09T06:41:16.681Z,284
2017-09-09T06:42:16.060Z,296
2017-09-09T06:43:16.680Z,320
2017-09-09T06:44:16.367Z,344
2017-09-09T06:45:17.898Z,376
2017-09-09T06:46:16.698Z,404
2017-09-09T06:47:16.382Z,412
2017-09-09T06:48:16.070Z,452
2017-09-09T06:49:16.681Z,500
2017-09-09T06:50:17.913Z,504
2017-09-09T06:51:16.677Z,496
2017-09-09T06:52:16.061Z,488
2017-09-09T06:53:16.362Z,488
2017-09-09T06:54:16.363Z,504
2017-09-09T06:55:17.977Z,528
2017-09-09T06:56:15.743Z,556
2017-09-09T06:57:16.064Z,544
2017-09-09T06:58:16.069Z,508
2017-09-09T06:59:16.668Z,472
2017-09-09T07:00:17.402Z,460
2017-09-09T07:01:16.047Z,464
2017-09-09T07:02:16.080Z,476
2017-09-09T07:03:16.393Z,496
2017-09-09T07:04:16.078Z,516
2017-09-09T07:05:17.791Z,516
2017-09-09T07:06:16.403Z,508
2017-09-09T07:07:16.395Z,508
2017-09-09T07:08:16.361Z,524
2017-09-09T07:09:16.674Z,540
2017-09-09T07:10:17.317Z,580
2017-09-09T07:11:16.685Z,660
2017-09-09T07:12:16.061Z,724
2017-09-09T07:13:16.364Z,760
2017-09-09T07:14:16.054Z,752
2017-09-09T07:15:16.759Z,740
2017-09-09T07:16:16.365Z,704
2017-09-09T07:17:16.666Z,652
2017-09-09T07:18:16.064Z,628
2017-09-09T07:19:16.044Z,644
2017-09-09T07:20:17.404Z,724
2017-09-09T07:21:16.050Z,836
2017-09-09T07:22:16.673Z,928
2017-09-09T07:23:16.351Z,972
2017-09-09T07:24:16.365Z,988
2017-09-09T07:25:17.629Z,1028
2017-09-09T07:26:16.352Z,1052
2017-09-09T07:27:16.366Z,1068
2017-09-09T07:28:16.042Z,996
2017-09-09T07:29:16.656Z,924
2017-09-09T07:30:18.103Z,872
2017-09-09T07:31:16.657Z,844
2017-09-09T07:32:16.355Z,856
2017-09-09T07:33:16.355Z,892
2017-09-09T07:34:16.354Z,936
2017-09-09T07:35:16.949Z,948
2017-09-09T07:36:16.696Z,932
2017-09-09T07:37:16.358Z,932
2017-09-09T07:38:16.038Z,1020
2017-09-09T07:39:16.345Z,1092
2017-09-09T07:40:17.435Z,1172
2017-09-09T07:41:16.347Z,1236
2017-09-09T07:42:16.657Z,1232
2017-09-09T07:43:16.039Z,1276
2017-09-09T07:44:16.346Z,1356
2017-09-09T07:45:16.821Z,1356
2017-09-09T07:46:16.651Z,1304
2017-09-09T07:47:16.340Z,1292
2017-09-09T07:48:16.356Z,1308
2017-09-09T07:49:16.340Z,1320
2017-09-09T07:50:17.089Z,1244
2017-09-09T07:51:16.346Z,1132
2017-09-09T07:52:16.651Z,1040
2017-09-09T07:53:16.665Z,976
2017-09-09T07:54:15.718Z,952
2017-09-09T07:55:18.208Z,916
2017-09-09T07:56:16.338Z,892
2017-09-09T07:57:16.346Z,888
2017-09-09T07:58:16.338Z,880
2017-09-09T07:59:16.656Z,880
2017-09-09T08:00:17.609Z,848
2017-09-09T08:01:16.833Z,828
2017-09-09T08:02:16.554Z,812
2017-09-09T08:03:15.806Z,832
2017-09-09T08:04:16.668Z,876
2017-09-09T08:05:17.956Z,868
2017-09-09T08:06:16.339Z,852
2017-09-09T08:07:16.025Z,840
2017-09-09T08:08:16.675Z,804
2017-09-09T08:09:16.365Z,780
2017-09-09T08:10:17.338Z,792
2017-09-09T08:11:16.335Z,796
2017-09-09T08:12:16.645Z,808
2017-09-09T08:13:16.333Z,812
2017-09-09T08:14:16.334Z,820
2017-09-09T08:15:17.533Z,796
2017-09-09T08:16:16.333Z,760
2017-09-09T08:17:16.637Z,760
2017-09-09T08:18:16.043Z,756
2017-09-09T08:19:16.332Z,792
2017-09-09T08:20:17.189Z,872
2017-09-09T08:21:16.642Z,908
2017-09-09T08:22:16.335Z,928
2017-09-09T08:23:16.358Z,980
2017-09-09T08:24:16.648Z,968
2017-09-09T08:25:17.217Z,944
2017-09-09T08:26:16.332Z,920
2017-09-09T08:27:16.330Z,892
2017-09-09T08:28:16.328Z,876
2017-09-09T08:29:16.330Z,860
2017-09-09T08:30:17.631Z,852
2017-09-09T08:31:16.338Z,864
2017-09-09T08:32:16.640Z,896
2017-09-09T08:33:16.651Z,944
2017-09-09T08:34:16.647Z,956
2017-09-09T08:35:18.039Z,976
2017-09-09T08:36:16.033Z,988
2017-09-09T08:37:16.635Z,1008
2017-09-09T08:38:16.016Z,1032
2017-09-09T08:39:16.327Z,1056
2017-09-09T08:40:16.349Z,1064
2017-09-09T08:41:16.635Z,1096
2017-09-09T08:42:16.328Z,1136
2017-09-09T08:43:16.640Z,1136
2017-09-09T08:44:16.640Z,1156
2017-09-09T08:45:17.308Z,1216
2017-09-09T08:46:16.332Z,1288
2017-09-09T08:47:16.636Z,1356
2017-09-09T08:48:16.022Z,1412
2017-09-09T08:49:16.657Z,1428
2017-09-09T08:50:16.953Z,1460
2017-09-09T08:51:16.016Z,1472
2017-09-09T08:52:16.328Z,1436
2017-09-09T08:53:16.656Z,1384
2017-09-09T08:54:16.322Z,1304
2017-09-09T08:55:17.292Z,1296
2017-09-09T08:56:16.021Z,1304
2017-09-09T08:57:16.013Z,1328
2017-09-09T08:58:16.318Z,1364
2017-09-09T08:59:16.631Z,1352
2017-09-09T09:00:17.803Z,1308
2017-09-09T09:01:16.012Z,1272
2017-09-09T09:02:16.632Z,1320
2017-09-09T09:03:16.324Z,1340
2017-09-09T09:04:16.331Z,1372
2017-09-09T09:05:17.804Z,1488
2017-09-09T09:06:16.676Z,1532
2017-09-09T09:07:15.699Z,1604
2017-09-09T09:08:16.330Z,1644
2017-09-09T09:09:16.319Z,1644
2017-09-09T09:10:17.710Z,1628
2017-09-09T09:11:16.012Z,1616
2017-09-09T09:12:16.008Z,1592
2017-09-09T09:13:16.637Z,1572
2017-09-09T09:14:16.323Z,1584
2017-09-09T09:15:17.685Z,1660
2017-09-09T09:16:16.011Z,1728
2017-09-09T09:17:16.636Z,1788
2017-09-09T09:18:16.333Z,1848
2017-09-09T09:19:15.702Z,1868
2017-09-09T09:20:17.633Z,1860
2017-09-09T09:21:16.006Z,1880
2017-09-09T09:22:16.016Z,1876
2017-09-09T09:23:16.323Z,1864
2017-09-09T09:24:15.708Z,1868
2017-09-09T09:25:18.102Z,1868
2017-09-09T09:26:16.317Z,1860
2017-09-09T09:27:16.341Z,1896
2017-09-09T09:28:16.016Z,2024
2017-09-09T09:29:16.632Z,2208
2017-09-09T09:30:17.937Z,2320
2017-09-09T09:31:16.318Z,2412
2017-09-09T09:32:16.054Z,2488
2017-09-09T09:33:16.342Z,2528
2017-09-09T09:34:16.325Z,2568
2017-09-09T09:35:17.077Z,2616
2017-09-09T09:36:16.623Z,2600
2017-09-09T09:37:16.646Z,2572
2017-09-09T09:38:16.624Z,2576
2017-09-09T09:39:16.327Z,2528
2017-09-09T09:40:17.741Z,2528
2017-09-09T09:41:16.321Z,2596
2017-09-09T09:42:16.639Z,2716
2017-09-09T09:43:16.323Z,2872
2017-09-09T09:44:16.627Z,3036
2017-09-09T09:45:16.826Z,3160
2017-09-09T09:46:16.323Z,3192
2017-09-09T09:47:16.016Z,3228
2017-09-09T09:48:16.326Z,3336
2017-09-09T09:49:16.334Z,3540
2017-09-09T09:50:17.544Z,3784
2017-09-09T09:51:16.638Z,3932
2017-09-09T09:52:16.025Z,4040
2017-09-09T09:53:16.320Z,4136
2017-09-09T09:54:16.320Z,4236
2017-09-09T09:55:17.639Z,4540
2017-09-09T09:56:16.016Z,4952
2017-09-09T09:57:16.330Z,5384
2017-09-09T09:58:15.713Z,5660
2017-09-09T09:59:16.633Z,5788
2017-09-09T10:00:17.717Z,5896
2017-09-09T10:01:16.325Z,5868
2017-09-09T10:02:16.349Z,5652
2017-09-09T10:03:16.356Z,5320
2017-09-09T10:04:16.329Z,4996
2017-09-09T10:05:17.973Z,4756
2017-09-09T10:06:16.664Z,4544
2017-09-09T10:07:16.025Z,4324
2017-09-09T10:08:16.040Z,4132
2017-09-09T10:09:16.650Z,3984
2017-09-09T10:10:17.186Z,3884
2017-09-09T10:11:16.350Z,3752
2017-09-09T10:12:15.725Z,3616
2017-09-09T10:13:16.344Z,3552
2017-09-09T10:14:16.356Z,3552
2017-09-09T10:15:16.537Z,3584
2017-09-09T10:16:16.356Z,3628
2017-09-09T10:17:16.046Z,3664
2017-09-09T10:18:16.361Z,3720
2017-09-09T10:19:16.349Z,3816
2017-09-09T10:20:16.356Z,3932
2017-09-09T10:21:16.045Z,4036
2017-09-09T10:22:16.667Z,4108
2017-09-09T10:23:16.051Z,4212
2017-09-09T10:24:16.674Z,4264
2017-09-09T10:25:17.682Z,4212
2017-09-09T10:26:16.681Z,4116
2017-09-09T10:27:16.676Z,3964
2017-09-09T10:28:16.362Z,3804
2017-09-09T10:29:16.398Z,3756
2017-09-09T10:30:17.064Z,3828
2017-09-09T10:31:16.371Z,4012
2017-09-09T10:32:16.432Z,4188
2017-09-09T10:33:16.364Z,4324
2017-09-09T10:34:16.678Z,4448
2017-09-09T10:35:17.207Z,4524
2017-09-09T10:36:16.372Z,4548
2017-09-09T10:37:16.371Z,4584
2017-09-09T10:38:16.366Z,4700
2017-09-09T10:39:16.372Z,4912
2017-09-09T10:40:17.592Z,5196
2017-09-09T10:41:16.679Z,5496
2017-09-09T10:42:16.368Z,5788
2017-09-09T10:43:16.693Z,6164
2017-09-09T10:44:16.706Z,6320
2017-09-09T10:45:18.067Z,6280
2017-09-09T10:46:16.381Z,6120
2017-09-09T10:47:16.374Z,6060
2017-09-09T10:48:16.712Z,6124
2017-09-09T10:49:16.375Z,6204
2017-09-09T10:50:17.925Z,6336
2017-09-09T10:51:16.065Z,6432
2017-09-09T10:52:16.386Z,6716
2017-09-09T10:53:16.398Z,7200
2017-09-09T10:54:16.427Z,7640
2017-09-09T10:55:18.153Z,7960
2017-09-09T10:56:15.767Z,8376
2017-09-09T10:57:16.082Z,8844
2017-09-09T10:58:15.855Z,9184
2017-09-09T10:59:16.386Z,9288
2017-09-09T11:00:17.939Z,9352
2017-09-09T11:01:16.393Z,9596
2017-09-09T11:02:16.391Z,9832
2017-09-09T11:03:16.397Z,9800
2017-09-09T11:04:16.699Z,9612
2017-09-09T11:05:17.821Z,9592
2017-09-09T11:06:16.725Z,9876
2017-09-09T11:07:16.399Z,10368
2017-09-09T11:08:16.419Z,10720
2017-09-09T11:09:16.399Z,10880
2017-09-09T11:10:16.722Z,11084
2017-09-09T11:11:16.123Z,11240
2017-09-09T11:12:16.114Z,11368
2017-09-09T11:13:16.421Z,11368
2017-09-09T11:14:16.725Z,11260
2017-09-09T11:15:17.704Z,11188
2017-09-09T11:16:16.107Z,11076
2017-09-09T11:17:16.422Z,11024
2017-09-09T11:18:16.731Z,10856
2017-09-09T11:19:16.419Z,10844
2017-09-09T11:20:17.861Z,10928
2017-09-09T11:21:16.421Z,11012
2017-09-09T11:22:16.746Z,11008
2017-09-09T11:23:16.133Z,10920
2017-09-09T11:24:16.497Z,10788
2017-09-09T11:25:17.319Z,10728
2017-09-09T11:26:16.438Z,10668
2017-09-09T11:27:16.131Z,10580
2017-09-09T11:28:16.442Z,10600
2017-09-09T11:29:15.826Z,10724
2017-09-09T11:30:17.808Z,10868
2017-09-09T11:31:16.459Z,10904
2017-09-09T11:32:16.461Z,10936
2017-09-09T11:33:16.463Z,11040
2017-09-09T11:34:16.212Z,11204
2017-09-09T11:35:17.792Z,11296
2017-09-09T11:36:16.162Z,11280
2017-09-09T11:37:16.159Z,11120
2017-09-09T11:38:16.467Z,10936
2017-09-09T11:39:16.473Z,10888
2017-09-09T11:40:17.828Z,11056
2017-09-09T11:41:16.173Z,11204
2017-09-09T11:42:16.795Z,11244
2017-09-09T11:43:16.496Z,11292
2017-09-09T11:44:16.798Z,11272
2017-09-09T11:45:17.278Z,11236
2017-09-09T11:46:17.317Z,11232
2017-09-09T11:47:16.500Z,11224
2017-09-09T11:48:16.504Z,11332
2017-09-09T11:49:16.809Z,11360
2017-09-09T11:50:18.040Z,11364
2017-09-09T11:51:16.823Z,11236
2017-09-09T11:52:16.521Z,11256
2017-09-09T11:53:16.208Z,11292
2017-09-09T11:54:16.519Z,11048
2017-09-09T11:55:18.045Z,10808
2017-09-09T11:56:16.849Z,10696
2017-09-09T11:57:16.534Z,10976
2017-09-09T11:58:16.224Z,11544
2017-09-09T11:59:16.556Z,11948
2017-09-09T12:00:17.255Z,11676
2017-09-09T12:01:16.552Z,11332
2017-09-09T12:02:16.263Z,10628
2017-09-09T12:03:16.487Z,9640
2017-09-09T12:04:16.995Z,8548
2017-09-09T12:05:17.826Z,7976
2017-09-09T12:06:16.560Z,7504
2017-09-09T12:07:16.572Z,6664
2017-09-09T12:08:16.570Z,5816
2017-09-09T12:09:16.571Z,5356
2017-09-09T12:10:18.547Z,5272
2017-09-09T12:11:16.893Z,5444
2017-09-09T12:12:16.577Z,6004
2017-09-09T12:13:16.273Z,7288
2017-09-09T12:14:16.582Z,9404
2017-09-09T12:15:17.110Z,10956
2017-09-09T12:16:18.678Z,11524
2017-09-09T12:17:16.625Z,11468
2017-09-09T12:18:16.285Z,11012
2017-09-09T12:19:16.602Z,10668
2017-09-09T12:20:17.536Z,10124
2017-09-09T12:21:17.006Z,8964
2017-09-09T12:22:15.996Z,8048
2017-09-09T12:23:15.995Z,7440
2017-09-09T12:24:16.618Z,7140
2017-09-09T12:25:17.056Z,7032
2017-09-09T12:26:16.328Z,6728
2017-09-09T12:27:16.934Z,6328
2017-09-09T12:28:16.012Z,6104
2017-09-09T12:29:16.365Z,6276
2017-09-09T12:30:16.585Z,6604
2017-09-09T12:31:16.648Z,6728
2017-09-09T12:32:16.347Z,5988
2017-09-09T12:33:16.643Z,5352
2017-09-09T12:34:16.645Z,5316
2017-09-09T12:35:17.647Z,5528
2017-09-09T12:36:16.646Z,5696
2017-09-09T12:37:16.644Z,5676
2017-09-09T12:38:16.956Z,5492
2017-09-09T12:39:16.650Z,5068
2017-09-09T12:40:18.013Z,4636
2017-09-09T12:41:16.654Z,4108
2017-09-09T12:42:16.350Z,3484
2017-09-09T12:43:16.659Z,2976
2017-09-09T12:44:16.661Z,2524
2017-09-09T12:45:17.882Z,2128
2017-09-09T12:46:17.162Z,1828
2017-09-09T12:47:16.669Z,1728
2017-09-09T12:48:16.675Z,1804
2017-09-09T12:49:16.678Z,2008
2017-09-09T12:50:19.121Z,2160
2017-09-09T12:51:16.984Z,2044
2017-09-09T12:52:16.677Z,1860
2017-09-09T12:53:16.680Z,1696
2017-09-09T12:54:16.373Z,1700
2017-09-09T12:55:16.965Z,1784
2017-09-09T12:56:16.742Z,1812
2017-09-09T12:57:17.000Z,1792
2017-09-09T12:58:16.991Z,1652
2017-09-09T12:59:16.684Z,1680
2017-09-09T13:00:17.765Z,1856
2017-09-09T13:01:16.993Z,2180
2017-09-09T13:02:17.040Z,2540
2017-09-09T13:03:16.382Z,2924
2017-09-09T13:04:16.389Z,3324
2017-09-09T13:05:17.911Z,3652
2017-09-09T13:06:16.387Z,3912
2017-09-09T13:07:17.019Z,4464
2017-09-09T13:08:17.409Z,5140
2017-09-09T13:09:16.704Z,5488
2017-09-09T13:10:17.498Z,5828
2017-09-09T13:11:16.103Z,6212
2017-09-09T13:12:16.405Z,6868
2017-09-09T13:13:16.721Z,7364
2017-09-09T13:14:16.721Z,7584
2017-09-09T13:15:17.557Z,7788
2017-09-09T13:16:17.531Z,8220
2017-09-09T13:17:16.425Z,8904
2017-09-09T13:18:17.022Z,9556
2017-09-09T13:19:16.714Z,10192
2017-09-09T13:20:18.246Z,10512
2017-09-09T13:21:16.428Z,10452
2017-09-09T13:22:16.416Z,10144
2017-09-09T13:23:17.032Z,9600
2017-09-09T13:24:16.727Z,8832
2017-09-09T13:25:17.975Z,8084
2017-09-09T13:26:16.418Z,7524
2017-09-09T13:27:17.048Z,6996
2017-09-09T13:28:16.746Z,6488
2017-09-09T13:29:16.735Z,6028
2017-09-09T13:30:17.677Z,5648
2017-09-09T13:31:16.431Z,5424
2017-09-09T13:32:16.129Z,5088
2017-09-09T13:33:16.751Z,4560
2017-09-09T13:34:16.745Z,4064
2017-09-09T13:35:18.071Z,3728
2017-09-09T13:36:16.449Z,3516
2017-09-09T13:37:16.448Z,3388
2017-09-09T13:38:16.529Z,3120
2017-09-09T13:39:16.582Z,2816
2017-09-09T13:40:17.899Z,2504
2017-09-09T13:41:16.809Z,2268
2017-09-09T13:42:16.458Z,2076
2017-09-09T13:43:17.089Z,1840
2017-09-09T13:44:16.801Z,1596
2017-09-09T13:45:17.786Z,1380
2017-09-09T13:46:16.659Z,1264
2017-09-09T13:47:16.958Z,1260
2017-09-09T13:48:16.476Z,1340
2017-09-09T13:49:16.479Z,1408
2017-09-09T13:50:17.092Z,1512
2017-09-09T13:51:16.482Z,1680
2017-09-09T13:52:16.798Z,1836